createdAt,value
2023-02-07T00:02:26.572Z,0.60
2023-02-07T00:04:58.469Z,0.60
2023-02-07T00:07:32.565Z,0.60
2023-02-07T00:10:03.426Z,0.60
2023-02-07T00:12:34.036Z,0.70
2023-02-07T00:15:05.106Z,0.70
2023-02-07T00:17:36.380Z,0.60
2023-02-07T00:20:08.531Z,0.70
2023-02-07T00:22:41.872Z,0.70
2023-02-07T00:25:13.011Z,0.70
2023-02-07T00:27:45.415Z,0.70
2023-02-07T00:30:20.140Z,0.70
2023-02-07T00:32:50.863Z,0.70
2023-02-07T00:35:22.133Z,0.70
2023-02-07T00:37:55.811Z,0.60
2023-02-07T00:40:26.808Z,0.60
2023-02-07T00:42:58.164Z,0.60
2023-02-07T00:45:29.066Z,0.60
2023-02-07T00:47:59.673Z,0.60
2023-02-07T00:50:31.332Z,0.60
2023-02-07T00:53:05.749Z,0.50
2023-02-07T00:55:36.943Z,0.60
2023-02-07T00:58:07.732Z,0.60
2023-02-07T01:00:39.786Z,0.50
2023-02-07T01:03:10.520Z,0.50
2023-02-07T01:05:42.300Z,0.50
2023-02-07T01:08:15.975Z,0.50
2023-02-07T01:10:47.619Z,0.50
2023-02-07T01:13:19.276Z,0.50
2023-02-07T01:15:54.281Z,0.50
2023-02-07T01:18:24.829Z,0.40
2023-02-07T01:20:56.604Z,0.40
2023-02-07T01:23:29.731Z,0.50
2023-02-07T01:26:01.346Z,0.50
2023-02-07T01:28:33.808Z,0.50
2023-02-07T01:31:09.249Z,0.50
2023-02-07T01:33:40.921Z,0.50
2023-02-07T01:36:14.681Z,0.50
2023-02-07T01:38:47.915Z,0.50
2023-02-07T01:41:19.064Z,0.50
2023-02-07T01:44:03.741Z,0.50
2023-02-07T01:46:35.898Z,0.50
2023-02-07T01:49:09.672Z,0.50
2023-02-07T01:51:43.429Z,0.50
2023-02-07T01:54:17.462Z,0.50
2023-02-07T01:56:55.724Z,0.60
2023-02-07T01:59:28.455Z,0.50
2023-02-07T02:02:00.043Z,0.50
2023-02-07T02:04:30.843Z,0.60
2023-02-07T02:07:02.002Z,0.60
2023-02-07T02:09:35.520Z,0.60
2023-02-07T02:12:24.492Z,0.60
2023-02-07T02:15:06.420Z,0.50
2023-02-07T02:17:42.316Z,0.60
2023-02-07T02:20:36.864Z,0.60
2023-02-07T02:23:30.665Z,0.60
2023-02-07T02:26:16.024Z,0.60
2023-02-07T02:29:02.365Z,0.60
2023-02-07T02:31:59.596Z,0.60
2023-02-07T02:34:36.178Z,0.50
2023-02-07T02:37:10.043Z,0.50
2023-02-07T02:39:44.811Z,0.50
2023-02-07T02:42:18.379Z,0.50
2023-02-07T02:44:52.479Z,0.50
2023-02-07T02:47:23.596Z,0.60
2023-02-07T02:49:57.822Z,0.60
2023-02-07T02:52:45.019Z,0.50
2023-02-07T02:55:25.628Z,0.60
2023-02-07T02:58:03.781Z,0.50
2023-02-07T03:00:41.504Z,0.50
2023-02-07T03:03:21.056Z,0.50
2023-02-07T03:06:03.373Z,0.60
2023-02-07T03:08:39.686Z,0.60
2023-02-07T03:11:12.457Z,0.60
2023-02-07T03:13:51.121Z,0.60
2023-02-07T03:16:25.526Z,0.60
2023-02-07T03:18:59.915Z,0.60
2023-02-07T03:21:34.631Z,0.60
2023-02-07T03:24:07.495Z,0.60
2023-02-07T03:26:41.411Z,0.60
2023-02-07T03:29:12.756Z,0.60
2023-02-07T03:31:44.770Z,0.60
2023-02-07T03:34:18.409Z,0.60
2023-02-07T03:36:56.322Z,0.60
2023-02-07T03:39:27.067Z,0.60
2023-02-07T03:42:01.815Z,0.60
2023-02-07T03:44:33.772Z,0.60
2023-02-07T03:47:04.717Z,0.60
2023-02-07T03:49:35.693Z,0.60
2023-02-07T03:52:09.320Z,0.70
2023-02-07T03:54:40.193Z,0.60
2023-02-07T03:57:11.026Z,0.70
2023-02-07T03:59:41.527Z,0.60
2023-02-07T04:02:13.069Z,0.70
2023-02-07T04:04:44.060Z,0.60
2023-02-07T04:07:17.523Z,0.60
2023-02-07T04:09:48.175Z,0.70
2023-02-07T04:12:19.942Z,0.70
2023-02-07T04:14:50.489Z,0.70
2023-02-07T04:17:21.258Z,0.70
2023-02-07T04:19:51.935Z,0.70
2023-02-07T04:22:25.455Z,0.70
2023-02-07T04:24:56.680Z,0.70
2023-02-07T04:27:27.819Z,0.70
2023-02-07T04:29:58.391Z,0.70
2023-02-07T04:32:29.191Z,0.70
2023-02-07T04:35:00.175Z,0.70
2023-02-07T04:37:33.929Z,0.70
2023-02-07T04:40:04.721Z,0.70
2023-02-07T04:42:35.760Z,0.70
2023-02-07T04:45:07.024Z,0.70
2023-02-07T04:47:37.859Z,0.70
2023-02-07T04:50:08.516Z,0.70
2023-02-07T04:52:43.341Z,0.70
2023-02-07T04:55:13.814Z,0.70
2023-02-07T04:57:44.678Z,0.70
2023-02-07T05:00:16.320Z,0.70
2023-02-07T05:02:48.464Z,0.80
2023-02-07T05:05:18.967Z,0.80
2023-02-07T05:07:53.145Z,0.80
2023-02-07T05:10:23.967Z,0.80
2023-02-07T05:12:54.716Z,0.70
2023-02-07T05:15:25.312Z,0.80
2023-02-07T05:17:57.263Z,0.80
2023-02-07T05:20:28.137Z,0.80
2023-02-07T05:23:01.547Z,0.80
2023-02-07T05:25:31.984Z,0.80
2023-02-07T05:28:06.047Z,0.80
2023-02-07T05:30:36.758Z,0.80
2023-02-07T05:33:05.091Z,0.80
2023-02-07T05:35:36.798Z,0.80
2023-02-07T05:38:12.013Z,0.80
2023-02-07T05:40:45.769Z,0.80
2023-02-07T05:43:17.523Z,0.80
2023-02-07T05:45:48.598Z,0.80
2023-02-07T05:48:19.678Z,0.80
2023-02-07T05:50:50.833Z,0.90
2023-02-07T05:53:24.453Z,0.90
2023-02-07T05:55:55.140Z,0.80
2023-02-07T05:58:26.127Z,0.90
2023-02-07T06:00:58.100Z,0.90
2023-02-07T06:03:29.435Z,0.80
2023-02-07T06:06:00.794Z,0.90
2023-02-07T06:08:34.467Z,0.80
2023-02-07T06:11:05.168Z,0.90
2023-02-07T06:13:36.634Z,0.90
2023-02-07T06:16:10.590Z,0.90
2023-02-07T06:18:42.645Z,0.90
2023-02-07T06:21:13.203Z,0.90
2023-02-07T06:23:47.449Z,0.90
2023-02-07T06:26:21.476Z,0.90
2023-02-07T06:28:52.228Z,0.90
2023-02-07T06:31:22.774Z,1.00
2023-02-07T06:33:53.881Z,1.00
2023-02-07T06:36:24.450Z,1.00
2023-02-07T06:38:57.901Z,1.00
2023-02-07T06:41:28.439Z,1.10
2023-02-07T06:43:59.804Z,1.10
2023-02-07T06:46:30.279Z,1.10
2023-02-07T06:49:01.145Z,1.10
2023-02-07T06:51:32.532Z,1.10
2023-02-07T06:54:10.388Z,1.20
2023-02-07T06:56:41.563Z,1.10
2023-02-07T06:59:13.205Z,1.20
2023-02-07T07:01:43.977Z,1.20
2023-02-07T07:04:15.128Z,1.20
2023-02-07T07:06:45.784Z,1.20
2023-02-07T07:09:19.312Z,1.30
2023-02-07T07:11:50.811Z,1.30
2023-02-07T07:14:22.951Z,1.30
2023-02-07T07:16:56.693Z,1.30
2023-02-07T07:19:28.186Z,1.40
2023-02-07T07:21:59.280Z,1.40
2023-02-07T07:24:33.477Z,1.50
2023-02-07T07:27:04.101Z,1.50
2023-02-07T07:29:35.466Z,1.50
2023-02-07T07:32:06.154Z,1.50
2023-02-07T07:34:37.638Z,1.50
2023-02-07T07:37:08.765Z,1.50
2023-02-07T07:39:42.493Z,1.60
2023-02-07T07:42:13.224Z,1.60
2023-02-07T07:45:00.502Z,1.60
2023-02-07T07:47:31.855Z,1.60
2023-02-07T07:50:03.627Z,1.60
2023-02-07T07:52:35.227Z,1.60
2023-02-07T07:55:09.247Z,1.60
2023-02-07T07:57:40.537Z,1.70
2023-02-07T08:00:12.802Z,1.60
2023-02-07T08:02:47.100Z,1.70
2023-02-07T08:05:18.256Z,1.70
2023-02-07T08:07:51.212Z,1.70
2023-02-07T08:10:24.710Z,1.70
2023-02-07T08:12:55.344Z,1.80
2023-02-07T08:15:26.164Z,1.80
2023-02-07T08:17:56.682Z,1.80
2023-02-07T08:20:27.755Z,1.80
2023-02-07T08:22:58.415Z,1.80
2023-02-07T08:25:31.954Z,1.80
2023-02-07T08:28:04.608Z,1.90
2023-02-07T08:30:37.229Z,1.90
2023-02-07T08:33:07.843Z,2.00
2023-02-07T08:35:39.695Z,2.00
2023-02-07T08:38:10.724Z,2.10
2023-02-07T08:40:44.449Z,2.10
2023-02-07T08:43:16.291Z,2.00
2023-02-07T08:45:50.060Z,2.00
2023-02-07T08:48:21.004Z,2.10
2023-02-07T08:50:51.995Z,2.10
2023-02-07T08:53:22.708Z,2.10
2023-02-07T08:55:56.645Z,2.10
2023-02-07T08:58:28.286Z,2.20
2023-02-07T09:00:59.510Z,2.20
2023-02-07T09:03:30.033Z,2.20
2023-02-07T09:06:01.764Z,2.20
2023-02-07T09:08:32.973Z,2.30
2023-02-07T09:11:09.640Z,2.30
2023-02-07T09:13:40.457Z,2.30
2023-02-07T09:16:11.717Z,2.40
2023-02-07T09:18:44.119Z,2.40
2023-02-07T09:21:15.007Z,2.40
2023-02-07T09:23:48.525Z,2.40
2023-02-07T09:26:23.150Z,2.50
2023-02-07T09:28:53.961Z,2.50
2023-02-07T09:31:25.566Z,2.50
2023-02-07T09:33:56.049Z,2.50
2023-02-07T09:36:28.896Z,2.60
2023-02-07T09:38:59.874Z,2.60
2023-02-07T09:41:37.258Z,2.70
2023-02-07T09:44:10.943Z,2.70
2023-02-07T09:46:43.425Z,2.70
2023-02-07T09:49:19.012Z,2.70
2023-02-07T09:51:50.141Z,2.70
2023-02-07T09:54:23.936Z,2.80
2023-02-07T09:57:00.081Z,2.80
2023-02-07T09:59:34.387Z,2.80
2023-02-07T10:02:08.644Z,2.70
2023-02-07T10:04:40.667Z,2.70
2023-02-07T10:07:13.701Z,2.80
2023-02-07T10:09:46.273Z,2.80
2023-02-07T10:12:28.166Z,2.80
2023-02-07T10:15:17.268Z,2.80
2023-02-07T10:17:53.806Z,2.90
2023-02-07T10:20:30.137Z,2.90
2023-02-07T10:23:07.377Z,2.90
2023-02-07T10:25:43.261Z,3.00
2023-02-07T10:28:29.920Z,3.00
2023-02-07T10:31:04.099Z,3.00
2023-02-07T10:33:36.293Z,3.00
2023-02-07T10:36:07.745Z,3.00
2023-02-07T10:38:42.647Z,3.00
2023-02-07T10:41:15.568Z,3.00
2023-02-07T10:43:49.885Z,3.10
2023-02-07T10:46:22.952Z,3.20
2023-02-07T10:48:54.162Z,3.20
2023-02-07T10:51:28.675Z,3.20
2023-02-07T10:54:07.915Z,3.30
2023-02-07T10:56:43.007Z,3.20
2023-02-07T10:59:31.282Z,3.20
2023-02-07T11:02:04.695Z,3.30
2023-02-07T11:04:39.480Z,3.30
2023-02-07T11:07:10.639Z,3.30
2023-02-07T11:09:42.370Z,3.20
2023-02-07T11:12:17.091Z,3.20
2023-02-07T11:15:02.613Z,3.20
2023-02-07T11:17:36.596Z,3.10
2023-02-07T11:20:09.097Z,3.10
2023-02-07T11:22:39.934Z,3.10
2023-02-07T11:25:11.054Z,3.10
2023-02-07T11:27:42.924Z,3.20
2023-02-07T11:30:19.320Z,3.20
2023-02-07T11:33:01.168Z,3.20
2023-02-07T11:35:32.241Z,3.20
2023-02-07T11:38:04.856Z,3.30
2023-02-07T11:40:40.219Z,3.30
2023-02-07T11:43:15.909Z,3.30
2023-02-07T11:45:47.839Z,3.30
2023-02-07T11:48:23.956Z,3.30
2023-02-07T11:50:56.662Z,3.20
2023-02-07T11:53:28.205Z,3.30
2023-02-07T11:55:59.710Z,3.30
2023-02-07T11:58:35.596Z,3.30
2023-02-07T12:01:07.941Z,3.30
2023-02-07T12:03:45.223Z,3.30
2023-02-07T12:06:18.756Z,3.20
2023-02-07T12:08:49.908Z,3.20
2023-02-07T12:11:24.034Z,3.30
2023-02-07T12:13:57.075Z,3.30
2023-02-07T12:16:29.613Z,3.30
2023-02-07T12:19:05.985Z,3.30
2023-02-07T12:21:39.900Z,3.30
2023-02-07T12:24:14.637Z,3.30
2023-02-07T12:26:48.397Z,3.40
2023-02-07T12:29:25.613Z,3.40
2023-02-07T12:32:02.107Z,3.40
2023-02-07T12:34:37.396Z,3.40
2023-02-07T12:37:14.342Z,3.40
2023-02-07T12:39:47.240Z,3.40
2023-02-07T12:42:27.403Z,3.40
2023-02-07T12:44:59.501Z,3.40
2023-02-07T12:47:36.086Z,3.30
2023-02-07T12:50:16.381Z,3.30
2023-02-07T12:52:53.557Z,3.40
2023-02-07T12:55:30.333Z,3.40
2023-02-07T12:58:08.587Z,3.40
2023-02-07T13:00:48.835Z,3.50
2023-02-07T13:03:25.385Z,3.50
2023-02-07T13:06:08.199Z,3.50
2023-02-07T13:08:44.895Z,3.50
2023-02-07T13:11:21.056Z,3.50
2023-02-07T13:13:58.780Z,3.60
2023-02-07T13:16:34.592Z,3.50
2023-02-07T13:19:07.824Z,3.50
2023-02-07T13:21:46.386Z,3.60
2023-02-07T13:24:18.503Z,3.60
2023-02-07T13:26:51.244Z,3.60
2023-02-07T13:29:23.529Z,3.60
2023-02-07T13:31:55.617Z,3.60
2023-02-07T13:34:27.271Z,3.60
2023-02-07T13:37:11.218Z,3.70
2023-02-07T13:39:47.140Z,3.70
2023-02-07T13:42:24.650Z,3.70
2023-02-07T13:45:00.347Z,3.70
2023-02-07T13:47:36.378Z,3.70
2023-02-07T13:50:14.221Z,3.70
2023-02-07T13:52:49.250Z,3.70
2023-02-07T13:55:25.914Z,3.70
2023-02-07T13:58:10.288Z,3.70
2023-02-07T14:00:56.880Z,3.70
2023-02-07T14:03:31.502Z,3.70
2023-02-07T14:06:18.252Z,3.70
2023-02-07T14:09:00.599Z,3.70
2023-02-07T14:11:38.158Z,3.70
2023-02-07T14:14:10.784Z,3.70
2023-02-07T14:16:50.660Z,3.70
2023-02-07T14:19:49.938Z,3.70
2023-02-07T14:22:21.798Z,3.70
2023-02-07T14:25:07.265Z,3.70
2023-02-07T14:27:42.001Z,3.60
2023-02-07T14:30:22.914Z,3.60
2023-02-07T14:33:17.918Z,3.60
2023-02-07T14:35:49.838Z,3.60
2023-02-07T14:38:32.532Z,3.60
2023-02-07T14:41:11.105Z,3.60
2023-02-07T14:44:06.430Z,3.60
2023-02-07T14:46:39.820Z,3.60
2023-02-07T14:49:15.706Z,3.60
2023-02-07T14:51:48.404Z,3.60
2023-02-07T14:54:21.795Z,3.60
2023-02-07T14:57:02.306Z,3.60
2023-02-07T14:59:38.139Z,3.60
2023-02-07T15:02:23.887Z,3.60
2023-02-07T15:04:54.780Z,3.60
2023-02-07T15:07:25.547Z,3.60
2023-02-07T15:09:56.396Z,3.60
2023-02-07T15:12:28.574Z,3.60
2023-02-07T15:15:04.683Z,3.60
2023-02-07T15:17:44.307Z,3.60
2023-02-07T15:20:17.970Z,3.50
2023-02-07T15:22:50.713Z,3.50
2023-02-07T15:25:21.938Z,3.50
2023-02-07T15:28:02.434Z,3.50
2023-02-07T15:30:37.195Z,3.50
2023-02-07T15:33:13.699Z,3.50
2023-02-07T15:35:45.599Z,3.40
2023-02-07T15:38:18.239Z,3.50
2023-02-07T15:40:49.149Z,3.50
2023-02-07T15:43:31.820Z,3.40
2023-02-07T15:46:07.386Z,3.40
2023-02-07T15:48:48.683Z,3.40
2023-02-07T15:51:22.152Z,3.40
2023-02-07T15:53:53.944Z,3.40
2023-02-07T15:56:25.857Z,3.40
2023-02-07T15:58:57.388Z,3.40
2023-02-07T16:01:34.028Z,3.40
2023-02-07T16:04:06.493Z,3.30
2023-02-07T16:06:38.028Z,3.30
2023-02-07T16:09:08.826Z,3.30
2023-02-07T16:11:41.453Z,3.30
2023-02-07T16:14:17.433Z,3.30
2023-02-07T16:16:54.173Z,3.30
2023-02-07T16:19:28.636Z,3.30
2023-02-07T16:22:03.859Z,3.30
2023-02-07T16:24:35.818Z,3.20
2023-02-07T16:27:07.328Z,3.20
2023-02-07T16:29:39.090Z,3.30
2023-02-07T16:32:16.245Z,3.20
2023-02-07T16:34:58.879Z,3.20
2023-02-07T16:37:31.353Z,3.20
2023-02-07T16:40:01.895Z,3.30
2023-02-07T16:42:33.239Z,3.20
2023-02-07T16:45:04.162Z,3.20
2023-02-07T16:47:38.224Z,3.20
2023-02-07T16:50:11.540Z,3.20
2023-02-07T16:52:42.818Z,3.20
2023-02-07T16:55:13.841Z,3.10
2023-02-07T16:57:45.633Z,3.20
2023-02-07T17:00:19.580Z,3.10
2023-02-07T17:02:53.819Z,3.10
2023-02-07T17:05:25.505Z,3.10
2023-02-07T17:07:57.016Z,3.10
2023-02-07T17:10:29.308Z,3.10
2023-02-07T17:13:01.309Z,3.10
2023-02-07T17:15:32.568Z,3.10
2023-02-07T17:18:07.946Z,3.10
2023-02-07T17:20:41.891Z,3.00
2023-02-07T17:23:13.383Z,3.00
2023-02-07T17:25:45.091Z,3.00
2023-02-07T17:28:16.767Z,3.00
2023-02-07T17:30:48.167Z,3.00
2023-02-07T17:33:21.702Z,3.00
2023-02-07T17:35:52.940Z,3.00
2023-02-07T17:38:24.256Z,3.00
2023-02-07T17:40:55.066Z,3.00
2023-02-07T17:43:26.947Z,3.00
2023-02-07T17:45:57.430Z,3.00
2023-02-07T17:48:32.856Z,3.00
2023-02-07T17:51:03.750Z,3.00
2023-02-07T17:53:34.795Z,2.90
2023-02-07T17:56:05.328Z,2.90
2023-02-07T17:58:38.646Z,2.90
2023-02-07T18:01:09.301Z,2.90
2023-02-07T18:03:42.895Z,2.80
2023-02-07T18:06:17.818Z,2.80
2023-02-07T18:08:48.735Z,2.80
2023-02-07T18:11:19.818Z,2.80
2023-02-07T18:13:51.832Z,2.90
2023-02-07T18:16:23.113Z,2.80
2023-02-07T18:19:00.319Z,2.80
2023-02-07T18:21:31.832Z,2.80
2023-02-07T18:24:05.718Z,2.80
2023-02-07T18:26:36.546Z,2.80
2023-02-07T18:29:08.214Z,2.80
2023-02-07T18:31:39.062Z,2.90
2023-02-07T18:34:13.407Z,2.90
2023-02-07T18:36:43.994Z,2.90
2023-02-07T18:39:15.516Z,2.90
2023-02-07T18:41:46.463Z,2.90
2023-02-07T18:44:17.324Z,2.80
2023-02-07T18:46:47.844Z,2.80
2023-02-07T18:49:23.125Z,2.80
2023-02-07T18:51:53.638Z,2.80
2023-02-07T18:54:25.334Z,2.80
2023-02-07T18:56:59.004Z,2.80
2023-02-07T18:59:31.178Z,2.80
2023-02-07T19:02:02.316Z,2.80
2023-02-07T19:04:36.360Z,2.80
2023-02-07T19:07:09.966Z,2.80
2023-02-07T19:09:44.340Z,2.70
2023-02-07T19:12:14.982Z,2.70
2023-02-07T19:14:46.423Z,2.80
2023-02-07T19:17:17.611Z,2.70
2023-02-07T19:19:52.214Z,2.80
2023-02-07T19:22:34.687Z,2.70
2023-02-07T19:25:07.079Z,2.60
2023-02-07T19:27:37.950Z,2.60
2023-02-07T19:30:09.918Z,2.50
2023-02-07T19:32:41.021Z,2.40
2023-02-07T19:35:15.640Z,2.40
2023-02-07T19:37:47.037Z,2.40
2023-02-07T19:40:18.811Z,2.40
2023-02-07T19:42:50.184Z,2.30
2023-02-07T19:45:21.642Z,2.40
2023-02-07T19:47:52.448Z,2.40
2023-02-07T19:50:26.487Z,2.40
2023-02-07T19:52:57.972Z,2.40
2023-02-07T19:55:28.873Z,2.50
2023-02-07T19:58:02.278Z,2.50
2023-02-07T20:00:33.091Z,2.50
2023-02-07T20:03:03.699Z,2.60
2023-02-07T20:05:37.956Z,2.50
2023-02-07T20:08:09.640Z,2.50
2023-02-07T20:10:43.701Z,2.60
2023-02-07T20:13:14.792Z,2.60
2023-02-07T20:15:48.083Z,2.60
2023-02-07T20:18:18.925Z,2.60
2023-02-07T20:20:57.994Z,2.60
2023-02-07T20:23:33.748Z,2.60
2023-02-07T20:26:06.836Z,2.50
2023-02-07T20:28:38.462Z,2.60
2023-02-07T20:31:10.851Z,2.50
2023-02-07T20:33:43.743Z,2.50
2023-02-07T20:36:18.491Z,2.50
2023-02-07T20:38:52.166Z,2.50
2023-02-07T20:41:33.425Z,2.60
2023-02-07T20:44:05.517Z,2.60
2023-02-07T20:46:39.154Z,2.60
2023-02-07T20:49:13.986Z,2.60
2023-02-07T20:51:49.079Z,2.60
2023-02-07T20:54:21.511Z,2.50
2023-02-07T20:56:52.813Z,2.50
2023-02-07T20:59:25.078Z,2.60
2023-02-07T21:01:56.008Z,2.60
2023-02-07T21:04:27.906Z,2.60
2023-02-07T21:07:01.818Z,2.60
2023-02-07T21:09:34.318Z,2.60
2023-02-07T21:12:05.780Z,2.60
2023-02-07T21:14:36.636Z,2.60
2023-02-07T21:17:08.841Z,2.60
2023-02-07T21:19:40.565Z,2.60
2023-02-07T21:22:15.069Z,2.50
2023-02-07T21:24:45.653Z,2.50
2023-02-07T21:27:16.429Z,2.50
2023-02-07T21:29:46.943Z,2.50
2023-02-07T21:32:18.514Z,2.50
2023-02-07T21:34:49.193Z,2.50
2023-02-07T21:37:22.918Z,2.40
2023-02-07T21:39:53.468Z,2.40
2023-02-07T21:42:24.364Z,2.40
2023-02-07T21:44:55.519Z,2.40
2023-02-07T21:47:27.006Z,2.30
2023-02-07T21:49:58.104Z,2.30
2023-02-07T21:52:31.911Z,2.30
2023-02-07T21:55:03.187Z,2.30
2023-02-07T21:57:33.973Z,2.30
2023-02-07T22:00:04.770Z,2.30
2023-02-07T22:02:38.115Z,2.30
2023-02-07T22:05:08.916Z,2.30
2023-02-07T22:07:42.588Z,2.30
2023-02-07T22:10:16.305Z,2.30
2023-02-07T22:12:47.138Z,2.20
2023-02-07T22:15:18.275Z,2.20
2023-02-07T22:17:49.499Z,2.30
2023-02-07T22:20:20.175Z,2.20
2023-02-07T22:22:56.807Z,2.20
2023-02-07T22:25:27.652Z,2.30
2023-02-07T22:27:58.942Z,2.20
2023-02-07T22:30:29.913Z,2.20
2023-02-07T22:33:01.382Z,2.20
2023-02-07T22:35:31.817Z,2.20
2023-02-07T22:38:05.503Z,2.20
2023-02-07T22:40:39.364Z,2.20
2023-02-07T22:43:12.426Z,2.20
2023-02-07T22:45:46.270Z,2.20
2023-02-07T22:48:18.373Z,2.20
2023-02-07T22:50:49.057Z,2.20
2023-02-07T22:53:23.083Z,2.20
2023-02-07T22:55:53.612Z,2.20
2023-02-07T22:58:24.538Z,2.20
2023-02-07T23:00:55.213Z,2.20
2023-02-07T23:03:29.307Z,2.20
2023-02-07T23:06:00.016Z,2.20
2023-02-07T23:08:34.911Z,2.20
2023-02-07T23:11:05.512Z,2.20
2023-02-07T23:13:36.670Z,2.20
2023-02-07T23:16:09.232Z,2.20
2023-02-07T23:18:40.161Z,2.20
2023-02-07T23:21:11.460Z,2.20
2023-02-07T23:23:45.390Z,2.30
2023-02-07T23:26:17.625Z,2.20
2023-02-07T23:28:51.075Z,2.20
2023-02-07T23:31:23.338Z,2.20
2023-02-07T23:33:54.611Z,2.20
2023-02-07T23:36:25.832Z,2.20
2023-02-07T23:38:59.366Z,2.20
2023-02-07T23:41:29.800Z,2.20
2023-02-07T23:44:02.725Z,2.20
2023-02-07T23:46:34.924Z,2.10
2023-02-07T23:49:06.244Z,2.10
2023-02-07T23:51:37.629Z,2.10
2023-02-07T23:54:11.762Z,2.10
2023-02-07T23:56:42.246Z,2.10
2023-02-07T23:59:13.600Z,2.20
